sensor_id;sensor_type;location;lat;lon;timestamp;pressure;altitude;pressure_sealevel;temperature;humidity
7026;BME280;3554;42.132;24.786;2022-10-17T00:01:24;100756.22;;;10.18;100.00
7026;BME280;3554;42.132;24.786;2022-10-17T00:03:51;100762.25;;;10.22;100.00
7026;BME280;3554;42.132;24.786;2022-10-17T00:06:17;100768.38;;;10.22;100.00
7026;BME280;3554;42.132;24.786;2022-10-17T00:08:44;100769.31;;;10.20;100.00
7026;BME280;3554;42.132;24.786;2022-10-17T00:11:14;100754.00;;;9.93;100.00
7026;BME280;3554;42.132;24.786;2022-10-17T00:13:41;100773.13;;;9.96;100.00
7026;BME280;3554;42.132;24.786;2022-10-17T00:16:10;100765.31;;;9.95;100.00
7026;BME280;3554;42.132;24.786;2022-10-17T00:18:37;100777.06;;;9.66;100.00
7026;BME280;3554;42.132;24.786;2022-10-17T00:21:04;100764.22;;;9.51;100.00
7026;BME280;3554;42.132;24.786;2022-10-17T00:23:32;100768.38;;;9.63;100.00
7026;BME280;3554;42.132;24.786;2022-10-17T00:26:00;100764.88;;;9.65;100.00
7026;BME280;3554;42.132;24.786;2022-10-17T00:28:27;100769.38;;;9.54;100.00
7026;BME280;3554;42.132;24.786;2022-10-17T00:30:55;100767.72;;;9.49;100.00
7026;BME280;3554;42.132;24.786;2022-10-17T00:33:23;100771.31;;;9.42;100.00
7026;BME280;3554;42.132;24.786;2022-10-17T00:35:50;100768.69;;;9.42;100.00
7026;BME280;3554;42.132;24.786;2022-10-17T00:38:17;100769.78;;;9.26;100.00
7026;BME280;3554;42.132;24.786;2022-10-17T00:40:44;100776.69;;;9.31;100.00
7026;BME280;3554;42.132;24.786;2022-10-17T00:43:14;100769.63;;;9.36;100.00
7026;BME280;3554;42.132;24.786;2022-10-17T00:45:42;100775.84;;;9.28;100.00
7026;BME280;3554;42.132;24.786;2022-10-17T00:48:10;100775.88;;;9.26;100.00
7026;BME280;3554;42.132;24.786;2022-10-17T00:50:42;100775.06;;;9.21;100.00
7026;BME280;3554;42.132;24.786;2022-10-17T00:53:10;100779.38;;;9.25;100.00
7026;BME280;3554;42.132;24.786;2022-10-17T00:55:41;100772.50;;;9.17;100.00
7026;BME280;3554;42.132;24.786;2022-10-17T00:58:09;100775.16;;;9.14;100.00
7026;BME280;3554;42.132;24.786;2022-10-17T01:00:36;100764.75;;;9.11;100.00
7026;BME280;3554;42.132;24.786;2022-10-17T01:03:03;100769.09;;;9.12;100.00
7026;BME280;3554;42.132;24.786;2022-10-17T01:05:31;100763.00;;;9.13;100.00
7026;BME280;3554;42.132;24.786;2022-10-17T01:07:59;100767.31;;;9.15;100.00
7026;BME280;3554;42.132;24.786;2022-10-17T01:10:30;100769.88;;;9.17;100.00
7026;BME280;3554;42.132;24.786;2022-10-17T01:13:07;100772.56;;;9.12;100.00
7026;BME280;3554;42.132;24.786;2022-10-17T01:15:46;100772.59;;;9.11;100.00
7026;BME280;3554;42.132;24.786;2022-10-17T01:18:25;100769.06;;;9.13;100.00
7026;BME280;3554;42.132;24.786;2022-10-17T01:21:05;100763.00;;;9.10;100.00
7026;BME280;3554;42.132;24.786;2022-10-17T01:26:54;100775.19;;;9.12;100.00
7026;BME280;3554;42.132;24.786;2022-10-17T01:29:46;100775.16;;;9.14;100.00
7026;BME280;3554;42.132;24.786;2022-10-17T01:32:21;100771.69;;;9.12;100.00
7026;BME280;3554;42.132;24.786;2022-10-17T01:34:56;100769.13;;;9.10;100.00
7026;BME280;3554;42.132;24.786;2022-10-17T01:37:29;100772.72;;;9.00;100.00
7026;BME280;3554;42.132;24.786;2022-10-17T01:40:02;100775.28;;;9.03;100.00
7026;BME280;3554;42.132;24.786;2022-10-17T01:42:35;100759.75;;;8.93;100.00
7026;BME280;3554;42.132;24.786;2022-10-17T01:45:07;100767.53;;;8.99;100.00
7026;BME280;3554;42.132;24.786;2022-10-17T01:47:40;100745.00;;;8.89;100.00
7026;BME280;3554;42.132;24.786;2022-10-17T01:50:11;100775.38;;;8.99;100.00
7026;BME280;3554;42.132;24.786;2022-10-17T01:52:43;100778.00;;;8.94;100.00
7026;BME280;3554;42.132;24.786;2022-10-17T01:55:15;100776.31;;;8.89;100.00
7026;BME280;3554;42.132;24.786;2022-10-17T01:57:48;100782.44;;;8.88;100.00
7026;BME280;3554;42.132;24.786;2022-10-17T02:00:20;100784.19;;;8.86;100.00
7026;BME280;3554;42.132;24.786;2022-10-17T02:02:51;100785.94;;;8.85;100.00
7026;BME280;3554;42.132;24.786;2022-10-17T02:05:24;100784.25;;;8.83;100.00
7026;BME280;3554;42.132;24.786;2022-10-17T02:07:52;100783.44;;;8.75;100.00
7026;BME280;3554;42.132;24.786;2022-10-17T02:10:24;100786.03;;;8.76;100.00
7026;BME280;3554;42.132;24.786;2022-10-17T02:12:54;100797.38;;;8.75;100.00
7026;BME280;3554;42.132;24.786;2022-10-17T02:15:55;100803.47;;;8.76;100.00
7026;BME280;3554;42.132;24.786;2022-10-17T02:18:38;100800.88;;;8.71;100.00
7026;BME280;3554;42.132;24.786;2022-10-17T02:21:14;100791.41;;;8.64;100.00
7026;BME280;3554;42.132;24.786;2022-10-17T02:23:50;100791.44;;;8.59;100.00
7026;BME280;3554;42.132;24.786;2022-10-17T02:26:24;100793.22;;;8.54;100.00
7026;BME280;3554;42.132;24.786;2022-10-17T02:29:01;100788.06;;;8.48;100.00
7026;BME280;3554;42.132;24.786;2022-10-17T02:31:32;100797.69;;;8.45;100.00
7026;BME280;3554;42.132;24.786;2022-10-17T02:34:06;100796.91;;;8.32;100.00
7026;BME280;3554;42.132;24.786;2022-10-17T02:36:39;100795.16;;;8.31;100.00
7026;BME280;3554;42.132;24.786;2022-10-17T02:39:08;100803.00;;;8.31;100.00
7026;BME280;3554;42.132;24.786;2022-10-17T02:41:37;100811.69;;;8.32;100.00
7026;BME280;3554;42.132;24.786;2022-10-17T02:44:06;100819.56;;;8.24;100.00
7026;BME280;3554;42.132;24.786;2022-10-17T02:46:34;100822.19;;;8.27;100.00
7026;BME280;3554;42.132;24.786;2022-10-17T02:49:08;100820.38;;;8.34;100.00
7026;BME280;3554;42.132;24.786;2022-10-17T02:51:41;100816.91;;;8.32;100.00
7026;BME280;3554;42.132;24.786;2022-10-17T02:54:16;100823.03;;;8.31;100.00
7026;BME280;3554;42.132;24.786;2022-10-17T02:56:49;100824.75;;;8.32;100.00
7026;BME280;3554;42.132;24.786;2022-10-17T02:59:19;100816.97;;;8.26;100.00
7026;BME280;3554;42.132;24.786;2022-10-17T03:01:47;100830.88;;;8.22;100.00
7026;BME280;3554;42.132;24.786;2022-10-17T03:04:18;100818.78;;;8.13;100.00
7026;BME280;3554;42.132;24.786;2022-10-17T03:06:45;100805.88;;;7.95;100.00
7026;BME280;3554;42.132;24.786;2022-10-17T03:09:13;100828.38;;;8.05;100.00
7026;BME280;3554;42.132;24.786;2022-10-17T03:11:39;100822.38;;;7.97;100.00
7026;BME280;3554;42.132;24.786;2022-10-17T03:14:07;100824.09;;;7.97;100.00
7026;BME280;3554;42.132;24.786;2022-10-17T03:16:33;100825.78;;;8.04;100.00
7026;BME280;3554;42.132;24.786;2022-10-17T03:19:00;100830.13;;;8.06;100.00
7026;BME280;3554;42.132;24.786;2022-10-17T03:21:28;100831.81;;;8.12;100.00
7026;BME280;3554;42.132;24.786;2022-10-17T03:23:55;100821.44;;;8.06;100.00
7026;BME280;3554;42.132;24.786;2022-10-17T03:26:22;100821.50;;;7.98;100.00
7026;BME280;3554;42.132;24.786;2022-10-17T03:28:49;100820.59;;;8.02;100.00
7026;BME280;3554;42.132;24.786;2022-10-17T03:31:16;100819.75;;;7.94;100.00
7026;BME280;3554;42.132;24.786;2022-10-17T03:33:43;100818.06;;;7.93;100.00
7026;BME280;3554;42.132;24.786;2022-10-17T03:36:11;100809.38;;;7.91;100.00
7026;BME280;3554;42.132;24.786;2022-10-17T03:38:40;100825.88;;;7.93;100.00
7026;BME280;3554;42.132;24.786;2022-10-17T03:41:07;100830.13;;;8.06;100.00
7026;BME280;3554;42.132;24.786;2022-10-17T03:43:34;100835.41;;;7.99;100.00
7026;BME280;3554;42.132;24.786;2022-10-17T03:46:02;100836.25;;;7.99;100.00
7026;BME280;3554;42.132;24.786;2022-10-17T03:48:29;100834.59;;;7.86;100.00
7026;BME280;3554;42.132;24.786;2022-10-17T03:50:58;100832.00;;;7.82;100.00
7026;BME280;3554;42.132;24.786;2022-10-17T03:53:25;100821.66;;;7.76;100.00
7026;BME280;3554;42.132;24.786;2022-10-17T03:55:54;100825.09;;;7.81;100.00
7026;BME280;3554;42.132;24.786;2022-10-17T03:58:21;100819.88;;;7.79;100.00
7026;BME280;3554;42.132;24.786;2022-10-17T04:00:48;100817.34;;;7.70;100.00
7026;BME280;3554;42.132;24.786;2022-10-17T04:03:14;100803.53;;;7.50;100.00
7026;BME280;3554;42.132;24.786;2022-10-17T04:05:41;100818.31;;;7.52;100.00
7026;BME280;3554;42.132;24.786;2022-10-17T04:08:08;100810.50;;;7.45;100.00
7026;BME280;3554;42.132;24.786;2022-10-17T04:10:35;100813.13;;;7.39;100.00
7026;BME280;3554;42.132;24.786;2022-10-17T04:13:03;100814.00;;;7.44;100.00
7026;BME280;3554;42.132;24.786;2022-10-17T04:15:30;100816.59;;;7.41;100.00
7026;BME280;3554;42.132;24.786;2022-10-17T04:17:57;100814.88;;;7.41;100.00
7026;BME280;3554;42.132;24.786;2022-10-17T04:20:24;100813.13;;;7.43;100.00
7026;BME280;3554;42.132;24.786;2022-10-17T04:22:51;100794.94;;;7.34;100.00
7026;BME280;3554;42.132;24.786;2022-10-17T04:25:18;100830.50;;;7.47;100.00
7026;BME280;3554;42.132;24.786;2022-10-17T04:27:44;100832.19;;;7.56;100.00
7026;BME280;3554;42.132;24.786;2022-10-17T04:30:15;100827.78;;;7.67;100.00
7026;BME280;3554;42.132;24.786;2022-10-17T04:32:42;100822.56;;;7.64;100.00
7026;BME280;3554;42.132;24.786;2022-10-17T04:35:08;100825.19;;;7.63;100.00
7026;BME280;3554;42.132;24.786;2022-10-17T04:37:35;100829.47;;;7.73;100.00
7026;BME280;3554;42.132;24.786;2022-10-17T04:40:02;100833.81;;;7.74;100.00
7026;BME280;3554;42.132;24.786;2022-10-17T04:42:29;100830.34;;;7.72;100.00
7026;BME280;3554;42.132;24.786;2022-10-17T04:44:56;100840.75;;;7.75;100.00
7026;BME280;3554;42.132;24.786;2022-10-17T04:47:24;100851.13;;;7.82;100.00
7026;BME280;3554;42.132;24.786;2022-10-17T04:49:51;100858.00;;;7.92;100.00
7026;BME280;3554;42.132;24.786;2022-10-17T04:52:18;100838.91;;;7.92;100.00
7026;BME280;3554;42.132;24.786;2022-10-17T04:54:45;100856.19;;;8.05;100.00
7026;BME280;3554;42.132;24.786;2022-10-17T04:57:11;100862.41;;;7.90;100.00
7026;BME280;3554;42.132;24.786;2022-10-17T04:59:38;100871.84;;;8.05;100.00
7026;BME280;3554;42.132;24.786;2022-10-17T05:02:05;100882.19;;;8.15;100.00
7026;BME280;3554;42.132;24.786;2022-10-17T05:04:33;100894.41;;;8.15;100.00
7026;BME280;3554;42.132;24.786;2022-10-17T05:07:00;100893.53;;;8.14;100.00
7026;BME280;3554;42.132;24.786;2022-10-17T05:09:27;100898.75;;;8.14;100.00
7026;BME280;3554;42.132;24.786;2022-10-17T05:11:54;100894.50;;;7.92;100.00
7026;BME280;3554;42.132;24.786;2022-10-17T05:14:20;100924.13;;;7.81;100.00
7026;BME280;3554;42.132;24.786;2022-10-17T05:16:47;100918.88;;;7.84;100.00
7026;BME280;3554;42.132;24.786;2022-10-17T05:19:14;100911.09;;;7.87;100.00
7026;BME280;3554;42.132;24.786;2022-10-17T05:21:43;100929.16;;;8.14;100.00
7026;BME280;3554;42.132;24.786;2022-10-17T05:24:10;100940.41;;;8.26;100.00
7026;BME280;3554;42.132;24.786;2022-10-17T05:26:38;100936.00;;;8.37;100.00
7026;BME280;3554;42.132;24.786;2022-10-17T05:29:05;100899.47;;;8.39;100.00
7026;BME280;3554;42.132;24.786;2022-10-17T05:31:32;100954.00;;;8.77;100.00
7026;BME280;3554;42.132;24.786;2022-10-17T05:33:59;100952.09;;;8.92;100.00
7026;BME280;3554;42.132;24.786;2022-10-17T05:36:27;100960.63;;;9.14;100.00
7026;BME280;3554;42.132;24.786;2022-10-17T05:38:55;100973.47;;;9.36;100.00
7026;BME280;3554;42.132;24.786;2022-10-17T05:41:22;100977.72;;;9.46;100.00
7026;BME280;3554;42.132;24.786;2022-10-17T05:43:48;100981.84;;;9.67;100.00
7026;BME280;3554;42.132;24.786;2022-10-17T05:46:16;100985.19;;;9.80;100.00
7026;BME280;3554;42.132;24.786;2022-10-17T05:48:43;100992.09;;;9.87;100.00
7026;BME280;3554;42.132;24.786;2022-10-17T05:51:10;100995.53;;;9.89;100.00
7026;BME280;3554;42.132;24.786;2022-10-17T05:53:38;100996.19;;;10.10;100.00
7026;BME280;3554;42.132;24.786;2022-10-17T05:56:08;100964.69;;;10.18;100.00
7026;BME280;3554;42.132;24.786;2022-10-17T05:58:35;101000.09;;;10.44;100.00
7026;BME280;3554;42.132;24.786;2022-10-17T06:01:05;100999.09;;;10.53;100.00
7026;BME280;3554;42.132;24.786;2022-10-17T06:03:33;101005.75;;;10.73;100.00
7026;BME280;3554;42.132;24.786;2022-10-17T06:06:03;100996.72;;;10.94;100.00
7026;BME280;3554;42.132;24.786;2022-10-17T06:08:30;101006.09;;;11.07;100.00
7026;BME280;3554;42.132;24.786;2022-10-17T06:10:57;100999.22;;;11.02;100.00
7026;BME280;3554;42.132;24.786;2022-10-17T06:13:25;101007.34;;;11.37;100.00
7026;BME280;3554;42.132;24.786;2022-10-17T06:15:52;100988.94;;;11.40;100.00
7026;BME280;3554;42.132;24.786;2022-10-17T06:18:19;101024.41;;;11.59;100.00
7026;BME280;3554;42.132;24.786;2022-10-17T06:20:45;101030.16;;;11.80;100.00
7026;BME280;3554;42.132;24.786;2022-10-17T06:23:12;101028.91;;;12.01;100.00
7026;BME280;3554;42.132;24.786;2022-10-17T06:25:39;101035.34;;;11.85;100.00
7026;BME280;3554;42.132;24.786;2022-10-17T06:28:06;101034.38;;;11.91;100.00
7026;BME280;3554;42.132;24.786;2022-10-17T06:30:36;101036.13;;;11.90;100.00
7026;BME280;3554;42.132;24.786;2022-10-17T06:33:03;101039.38;;;12.03;100.00
7026;BME280;3554;42.132;24.786;2022-10-17T06:35:30;101035.63;;;12.14;100.00
7026;BME280;3554;42.132;24.786;2022-10-17T06:37:57;101051.75;;;12.37;100.00
7026;BME280;3554;42.132;24.786;2022-10-17T06:40:24;101050.00;;;12.38;100.00
7026;BME280;3554;42.132;24.786;2022-10-17T06:42:52;101050.69;;;12.47;100.00
7026;BME280;3554;42.132;24.786;2022-10-17T06:45:18;101048.25;;;12.38;100.00
7026;BME280;3554;42.132;24.786;2022-10-17T06:47:47;101050.03;;;12.36;100.00
7026;BME280;3554;42.132;24.786;2022-10-17T06:50:14;101049.94;;;12.41;100.00
7026;BME280;3554;42.132;24.786;2022-10-17T06:52:41;101047.66;;;12.64;100.00
7026;BME280;3554;42.132;24.786;2022-10-17T06:55:08;101048.41;;;12.70;100.00
7026;BME280;3554;42.132;24.786;2022-10-17T06:57:35;101049.31;;;12.69;100.00
7026;BME280;3554;42.132;24.786;2022-10-17T07:00:03;101045.31;;;12.91;100.00
7026;BME280;3554;42.132;24.786;2022-10-17T07:02:30;101046.66;;;13.09;100.00
7026;BME280;3554;42.132;24.786;2022-10-17T07:04:58;101051.66;;;13.20;100.00
7026;BME280;3554;42.132;24.786;2022-10-17T07:07:25;101054.09;;;13.27;100.00
7026;BME280;3554;42.132;24.786;2022-10-17T07:09:52;100928.75;;;12.57;100.00
7026;BME280;3554;42.132;24.786;2022-10-17T07:12:19;101057.34;;;13.37;100.00
7026;BME280;3554;42.132;24.786;2022-10-17T07:14:45;101062.69;;;13.34;100.00
7026;BME280;3554;42.132;24.786;2022-10-17T07:17:14;101065.06;;;13.44;100.00
7026;BME280;3554;42.132;24.786;2022-10-17T07:19:41;101070.88;;;13.57;100.00
7026;BME280;3554;42.132;24.786;2022-10-17T07:22:10;101072.75;;;13.52;100.00
7026;BME280;3554;42.132;24.786;2022-10-17T07:24:37;101083.66;;;13.72;100.00
7026;BME280;3554;42.132;24.786;2022-10-17T07:27:04;101076.44;;;13.78;100.00
7026;BME280;3554;42.132;24.786;2022-10-17T07:29:31;101082.13;;;13.63;100.00
7026;BME280;3554;42.132;24.786;2022-10-17T07:31:58;101086.53;;;13.95;100.00
7026;BME280;3554;42.132;24.786;2022-10-17T07:34:25;101084.16;;;13.86;100.00
7026;BME280;3554;42.132;24.786;2022-10-17T07:36:55;101081.56;;;14.15;100.00
7026;BME280;3554;42.132;24.786;2022-10-17T07:39:23;101087.44;;;14.26;100.00
7026;BME280;3554;42.132;24.786;2022-10-17T07:41:50;101086.31;;;14.36;100.00
7026;BME280;3554;42.132;24.786;2022-10-17T07:44:17;101087.75;;;14.46;100.00
7026;BME280;3554;42.132;24.786;2022-10-17T07:46:44;101092.09;;;14.49;100.00
7026;BME280;3554;42.132;24.786;2022-10-17T07:49:11;101080.53;;;14.22;100.00
7026;BME280;3554;42.132;24.786;2022-10-17T07:51:37;101083.16;;;14.22;100.00
7026;BME280;3554;42.132;24.786;2022-10-17T07:54:05;101069.41;;;14.43;100.00
7026;BME280;3554;42.132;24.786;2022-10-17T07:56:33;101075.75;;;14.65;100.00
7026;BME280;3554;42.132;24.786;2022-10-17T07:59:00;101077.94;;;14.80;100.00
7026;BME280;3554;42.132;24.786;2022-10-17T08:01:26;101086.41;;;14.62;100.00
7026;BME280;3554;42.132;24.786;2022-10-17T08:03:53;101078.59;;;14.59;100.00
7026;BME280;3554;42.132;24.786;2022-10-17T08:06:20;101076.69;;;14.34;100.00
7026;BME280;3554;42.132;24.786;2022-10-17T08:08:47;101049.50;;;14.62;100.00
7026;BME280;3554;42.132;24.786;2022-10-17T08:11:14;101075.31;;;14.80;100.00
7026;BME280;3554;42.132;24.786;2022-10-17T08:13:42;101067.28;;;14.83;100.00
7026;BME280;3554;42.132;24.786;2022-10-17T08:16:10;101062.13;;;14.80;100.00
7026;BME280;3554;42.132;24.786;2022-10-17T08:18:39;101056.16;;;14.74;100.00
7026;BME280;3554;42.132;24.786;2022-10-17T08:21:06;101061.28;;;15.06;100.00
7026;BME280;3554;42.132;24.786;2022-10-17T08:23:34;101066.91;;;14.95;100.00
7026;BME280;3554;42.132;24.786;2022-10-17T08:26:02;101068.25;;;14.81;100.00
7026;BME280;3554;42.132;24.786;2022-10-17T08:28:29;101069.66;;;14.63;100.00
7026;BME280;3554;42.132;24.786;2022-10-17T08:31:03;101073.06;;;14.68;100.00
7026;BME280;3554;42.132;24.786;2022-10-17T08:33:30;101072.72;;;15.07;100.00
7026;BME280;3554;42.132;24.786;2022-10-17T08:35:58;101059.88;;;15.24;100.00
7026;BME280;3554;42.132;24.786;2022-10-17T08:38:25;101039.91;;;15.43;100.00
7026;BME280;3554;42.132;24.786;2022-10-17T08:40:52;101064.19;;;15.78;100.00
7026;BME280;3554;42.132;24.786;2022-10-17T08:43:32;101071.13;;;15.81;100.00
7026;BME280;3554;42.132;24.786;2022-10-17T08:46:07;101066.56;;;15.86;100.00
7026;BME280;3554;42.132;24.786;2022-10-17T08:48:37;101068.66;;;16.01;100.00
7026;BME280;3554;42.132;24.786;2022-10-17T08:51:10;101068.94;;;16.17;100.00
7026;BME280;3554;42.132;24.786;2022-10-17T08:53:43;101073.28;;;16.19;100.00
7026;BME280;3554;42.132;24.786;2022-10-17T08:56:17;101072.19;;;16.25;100.00
7026;BME280;3554;42.132;24.786;2022-10-17T08:58:45;101064.31;;;16.23;100.00
7026;BME280;3554;42.132;24.786;2022-10-17T09:01:31;101069.38;;;16.29;100.00
7026;BME280;3554;42.132;24.786;2022-10-17T09:04:27;101060.88;;;16.44;100.00
7026;BME280;3554;42.132;24.786;2022-10-17T09:07:02;101061.88;;;16.65;100.00
7026;BME280;3554;42.132;24.786;2022-10-17T09:09:38;101060.97;;;16.18;100.00
7026;BME280;3554;42.132;24.786;2022-10-17T09:12:16;101044.63;;;16.32;100.00
7026;BME280;3554;42.132;24.786;2022-10-17T09:15:02;101049.41;;;16.68;100.00
7026;BME280;3554;42.132;24.786;2022-10-17T09:17:40;101040.94;;;16.82;100.00
7026;BME280;3554;42.132;24.786;2022-10-17T09:20:13;101024.50;;;16.74;100.00
7026;BME280;3554;42.132;24.786;2022-10-17T09:22:47;101041.84;;;16.81;98.51
7026;BME280;3554;42.132;24.786;2022-10-17T09:25:18;101054.16;;;16.82;93.59
7026;BME280;3554;42.132;24.786;2022-10-17T09:27:48;101051.56;;;16.80;96.65
7026;BME280;3554;42.132;24.786;2022-10-17T09:30:27;101045.69;;;16.95;91.07
7026;BME280;3554;42.132;24.786;2022-10-17T09:32:58;101037.34;;;16.61;93.23
7026;BME280;3554;42.132;24.786;2022-10-17T09:35:26;101040.63;;;16.89;91.30
7026;BME280;3554;42.132;24.786;2022-10-17T09:37:54;101042.44;;;17.10;92.41
7026;BME280;3554;42.132;24.786;2022-10-17T09:40:25;101032.50;;;17.16;88.78
7026;BME280;3554;42.132;24.786;2022-10-17T09:42:54;101029.78;;;17.39;84.97
7026;BME280;3554;42.132;24.786;2022-10-17T09:45:22;101047.81;;;17.29;83.60
7026;BME280;3554;42.132;24.786;2022-10-17T09:47:57;101035.63;;;17.47;81.87
7026;BME280;3554;42.132;24.786;2022-10-17T09:50:29;101015.00;;;17.55;76.80
7026;BME280;3554;42.132;24.786;2022-10-17T09:53:00;101008.59;;;17.39;71.95
7026;BME280;3554;42.132;24.786;2022-10-17T09:55:32;101039.63;;;17.57;72.28
7026;BME280;3554;42.132;24.786;2022-10-17T09:58:04;101010.59;;;17.54;71.24
7026;BME280;3554;42.132;24.786;2022-10-17T10:00:33;101031.91;;;17.91;73.10
7026;BME280;3554;42.132;24.786;2022-10-17T10:03:16;101021.13;;;17.95;61.20
7026;BME280;3554;42.132;24.786;2022-10-17T10:06:00;101030.19;;;18.10;54.54
7026;BME280;3554;42.132;24.786;2022-10-17T10:08:28;101025.69;;;18.12;56.82
7026;BME280;3554;42.132;24.786;2022-10-17T10:11:00;101000.59;;;18.00;53.86
7026;BME280;3554;42.132;24.786;2022-10-17T10:13:29;101029.34;;;18.09;47.77
7026;BME280;3554;42.132;24.786;2022-10-17T10:16:14;101025.88;;;18.07;49.06
7026;BME280;3554;42.132;24.786;2022-10-17T10:18:41;101015.34;;;18.06;49.85
7026;BME280;3554;42.132;24.786;2022-10-17T10:21:12;101007.78;;;18.17;50.44
7026;BME280;3554;42.132;24.786;2022-10-17T10:23:40;101021.47;;;18.27;49.55
7026;BME280;3554;42.132;24.786;2022-10-17T10:26:25;101020.72;;;18.04;49.70
7026;BME280;3554;42.132;24.786;2022-10-17T10:28:58;100994.59;;;18.15;48.82
7026;BME280;3554;42.132;24.786;2022-10-17T10:31:32;101009.00;;;18.29;50.52
7026;BME280;3554;42.132;24.786;2022-10-17T10:34:02;101001.75;;;18.32;54.62
7026;BME280;3554;42.132;24.786;2022-10-17T10:36:46;100993.22;;;18.46;55.82
7026;BME280;3554;42.132;24.786;2022-10-17T10:39:28;100990.97;;;18.55;54.79
7026;BME280;3554;42.132;24.786;2022-10-17T10:41:58;100991.69;;;18.40;54.51
7026;BME280;3554;42.132;24.786;2022-10-17T10:44:28;100962.34;;;18.25;54.95
7026;BME280;3554;42.132;24.786;2022-10-17T10:47:21;100982.13;;;18.36;57.87
7026;BME280;3554;42.132;24.786;2022-10-17T10:49:50;100978.78;;;18.51;59.62
7026;BME280;3554;42.132;24.786;2022-10-17T10:52:26;100982.91;;;18.58;56.90
7026;BME280;3554;42.132;24.786;2022-10-17T10:57:43;100984.59;;;18.41;55.34
7026;BME280;3554;42.132;24.786;2022-10-17T11:00:15;100957.16;;;18.42;55.52
7026;BME280;3554;42.132;24.786;2022-10-17T11:02:53;100956.69;;;18.69;56.52
7026;BME280;3554;42.132;24.786;2022-10-17T11:05:34;100967.72;;;18.79;54.52
7026;BME280;3554;42.132;24.786;2022-10-17T11:08:09;100960.44;;;18.65;54.03
7026;BME280;3554;42.132;24.786;2022-10-17T11:10:43;100962.00;;;18.32;55.32
7026;BME280;3554;42.132;24.786;2022-10-17T11:13:18;100958.31;;;18.55;56.49
7026;BME280;3554;42.132;24.786;2022-10-17T11:15:51;100959.16;;;18.55;55.92
7026;BME280;3554;42.132;24.786;2022-10-17T11:18:22;100947.09;;;18.67;55.85
7026;BME280;3554;42.132;24.786;2022-10-17T11:20:53;100948.97;;;18.65;57.40
7026;BME280;3554;42.132;24.786;2022-10-17T11:23:27;100939.53;;;18.76;55.75
7026;BME280;3554;42.132;24.786;2022-10-17T11:25:58;100945.06;;;18.72;57.07
7026;BME280;3554;42.132;24.786;2022-10-17T11:28:28;100947.03;;;18.68;56.53
7026;BME280;3554;42.132;24.786;2022-10-17T11:30:58;100947.53;;;18.93;58.19
7026;BME280;3554;42.132;24.786;2022-10-17T11:33:29;100947.53;;;18.93;57.78
7026;BME280;3554;42.132;24.786;2022-10-17T11:36:01;100927.22;;;18.92;56.88
7026;BME280;3554;42.132;24.786;2022-10-17T11:38:37;100930.00;;;19.08;56.44
7026;BME280;3554;42.132;24.786;2022-10-17T11:41:08;100921.63;;;18.98;56.14
7026;BME280;3554;42.132;24.786;2022-10-17T11:43:44;100924.53;;;19.11;56.48
7026;BME280;3554;42.132;24.786;2022-10-17T11:46:17;100910.00;;;19.18;57.62
7026;BME280;3554;42.132;24.786;2022-10-17T11:48:57;100924.06;;;19.20;57.11
7026;BME280;3554;42.132;24.786;2022-10-17T11:51:28;100924.97;;;19.19;55.75
7026;BME280;3554;42.132;24.786;2022-10-17T11:54:03;100912.56;;;19.19;56.79
7026;BME280;3554;42.132;24.786;2022-10-17T11:56:37;100916.88;;;19.22;54.94
7026;BME280;3554;42.132;24.786;2022-10-17T11:59:23;100922.03;;;19.25;54.58
7026;BME280;3554;42.132;24.786;2022-10-17T12:01:56;100910.09;;;19.34;53.83
7026;BME280;3554;42.132;24.786;2022-10-17T12:04:39;100903.91;;;19.16;53.09
7026;BME280;3554;42.132;24.786;2022-10-17T12:07:14;100913.81;;;19.12;52.81
7026;BME280;3554;42.132;24.786;2022-10-17T12:09:48;100916.47;;;19.12;54.61
7026;BME280;3554;42.132;24.786;2022-10-17T12:12:25;100909.00;;;19.20;55.04
7026;BME280;3554;42.132;24.786;2022-10-17T12:14:53;100909.16;;;19.35;55.23
7026;BME280;3554;42.132;24.786;2022-10-17T12:17:31;100903.78;;;19.36;54.27
7026;BME280;3554;42.132;24.786;2022-10-17T12:20:28;100900.16;;;19.54;53.19
7026;BME280;3554;42.132;24.786;2022-10-17T12:23:01;100905.13;;;19.60;53.82
7026;BME280;3554;42.132;24.786;2022-10-17T12:25:31;100892.88;;;19.58;53.84
7026;BME280;3554;42.132;24.786;2022-10-17T12:28:11;100902.34;;;19.63;52.37
7026;BME280;3554;42.132;24.786;2022-10-17T12:30:49;100892.00;;;19.57;53.94
7026;BME280;3554;42.132;24.786;2022-10-17T12:33:18;100837.09;;;19.08;52.61
7026;BME280;3554;42.132;24.786;2022-10-17T12:35:47;100893.50;;;19.29;55.70
7026;BME280;3554;42.132;24.786;2022-10-17T12:38:26;100902.28;;;19.31;54.59
7026;BME280;3554;42.132;24.786;2022-10-17T12:40:59;100902.34;;;19.29;54.32
7026;BME280;3554;42.132;24.786;2022-10-17T12:43:43;100885.19;;;19.36;54.29
7026;BME280;3554;42.132;24.786;2022-10-17T12:46:10;100889.00;;;19.31;54.09
7026;BME280;3554;42.132;24.786;2022-10-17T12:54:51;100899.91;;;19.59;53.92
7026;BME280;3554;42.132;24.786;2022-10-17T12:57:24;100897.56;;;19.53;54.47
7026;BME280;3554;42.132;24.786;2022-10-17T12:59:52;100897.91;;;19.47;54.49
7026;BME280;3554;42.132;24.786;2022-10-17T13:02:21;100897.19;;;19.43;54.36
7026;BME280;3554;42.132;24.786;2022-10-17T13:04:52;100905.22;;;19.59;54.04
7026;BME280;3554;42.132;24.786;2022-10-17T13:07:22;100904.91;;;19.48;54.79
7026;BME280;3554;42.132;24.786;2022-10-17T13:09:50;100899.16;;;19.40;55.21
7026;BME280;3554;42.132;24.786;2022-10-17T13:12:24;100898.19;;;19.58;55.52
7026;BME280;3554;42.132;24.786;2022-10-17T13:14:53;100902.84;;;19.70;55.09
7026;BME280;3554;42.132;24.786;2022-10-17T13:17:23;100880.59;;;19.55;54.63
7026;BME280;3554;42.132;24.786;2022-10-17T13:19:50;100906.63;;;19.81;53.79
7026;BME280;3554;42.132;24.786;2022-10-17T13:22:19;100885.47;;;19.80;54.14
7026;BME280;3554;42.132;24.786;2022-10-17T13:24:47;100904.16;;;19.78;54.04
7026;BME280;3554;42.132;24.786;2022-10-17T13:27:26;100898.31;;;19.72;53.28